createdAt,value
2019-02-05T00:01:25.015Z,11.70
2019-02-05T00:03:53.201Z,12.17
2019-02-05T00:06:21.871Z,12.17
2019-02-05T00:08:49.756Z,13.40
2019-02-05T00:11:18.028Z,13.62
2019-02-05T00:13:45.475Z,12.80
2019-02-05T00:16:13.541Z,12.43
2019-02-05T00:18:41.628Z,13.02
2019-02-05T00:21:09.845Z,12.90
2019-02-05T00:23:37.802Z,13.77
2019-02-05T00:26:06.701Z,13.33
2019-02-05T00:28:34.218Z,13.23
2019-02-05T00:31:02.290Z,14.10
2019-02-05T00:33:30.907Z,13.43
2019-02-05T00:35:59.021Z,14.32
2019-02-05T00:38:27.102Z,13.37
2019-02-05T00:40:55.170Z,15.02
2019-02-05T00:43:23.296Z,14.65
2019-02-05T00:45:51.432Z,13.73
2019-02-05T00:48:19.631Z,15.70
2019-02-05T00:50:47.888Z,13.40
2019-02-05T00:53:16.403Z,13.57
2019-02-05T00:55:44.699Z,14.90
2019-02-05T00:58:12.936Z,14.93
2019-02-05T01:00:40.966Z,15.17
2019-02-05T01:03:09.045Z,15.97
2019-02-05T01:05:37.103Z,14.00
2019-02-05T01:08:05.825Z,14.23
2019-02-05T01:10:33.676Z,13.95
2019-02-05T01:13:02.259Z,12.00
2019-02-05T01:15:30.434Z,12.88
2019-02-05T01:17:58.809Z,14.73
2019-02-05T01:20:27.547Z,20.73
2019-02-05T01:22:56.923Z,16.15
2019-02-05T01:25:25.560Z,13.77
2019-02-05T01:27:53.690Z,15.23
2019-02-05T01:30:22.791Z,14.45
2019-02-05T01:32:50.617Z,14.38
2019-02-05T01:35:18.700Z,11.65
2019-02-05T01:37:47.389Z,14.80
2019-02-05T01:40:16.457Z,15.13
2019-02-05T01:42:44.644Z,15.38
2019-02-05T01:45:14.030Z,14.30
2019-02-05T01:47:42.241Z,15.77
2019-02-05T01:50:10.941Z,15.82
2019-02-05T01:52:38.764Z,15.85
2019-02-05T01:55:07.103Z,16.65
2019-02-05T01:57:35.210Z,16.00
2019-02-05T02:00:02.980Z,16.67
2019-02-05T02:02:30.840Z,16.48
2019-02-05T02:04:58.909Z,16.67
2019-02-05T02:07:26.973Z,16.65
2019-02-05T02:09:55.902Z,17.20
2019-02-05T02:12:23.933Z,18.70
2019-02-05T02:14:52.029Z,17.57
2019-02-05T02:17:20.528Z,17.73
2019-02-05T02:19:48.558Z,17.90
2019-02-05T02:22:16.746Z,15.77
2019-02-05T02:24:44.908Z,17.62
2019-02-05T02:27:12.901Z,16.90
2019-02-05T02:29:41.235Z,19.95
2019-02-05T02:32:09.419Z,18.50
2019-02-05T02:34:37.411Z,18.70
2019-02-05T02:37:05.493Z,18.57
2019-02-05T02:39:33.342Z,20.10
2019-02-05T02:42:01.518Z,20.62
2019-02-05T02:44:29.711Z,19.17
2019-02-05T02:46:58.968Z,18.50
2019-02-05T02:49:26.954Z,20.45
2019-02-05T02:51:55.215Z,20.30
2019-02-05T02:54:23.985Z,21.83
2019-02-05T02:57:04.345Z,21.58
2019-02-05T02:59:20.715Z,20.10
2019-02-05T03:01:49.178Z,20.87
2019-02-05T03:04:17.220Z,22.55
2019-02-05T03:06:45.498Z,22.85
2019-02-05T03:09:13.858Z,22.90
2019-02-05T03:11:42.079Z,23.27
2019-02-05T03:14:10.035Z,22.98
2019-02-05T03:16:38.652Z,21.77
2019-02-05T03:19:06.836Z,24.23
2019-02-05T03:21:34.744Z,25.25
2019-02-05T03:24:03.984Z,24.52
2019-02-05T03:26:32.682Z,23.48
2019-02-05T03:29:00.817Z,25.73
2019-02-05T03:31:28.905Z,24.08
2019-02-05T03:33:57.034Z,26.00
2019-02-05T03:36:25.171Z,25.55
2019-02-05T03:38:53.408Z,25.40
2019-02-05T03:41:21.457Z,24.42
2019-02-05T03:43:49.248Z,24.48
2019-02-05T03:46:17.403Z,26.20
2019-02-05T03:48:46.492Z,24.02
2019-02-05T03:51:33.079Z,23.92
2019-02-05T03:54:04.620Z,26.08
2019-02-05T03:56:40.525Z,26.20
2019-02-05T03:59:19.817Z,23.70
2019-02-05T04:02:13.668Z,25.20
2019-02-05T04:05:07.191Z,25.83
2019-02-05T04:07:57.888Z,26.23
2019-02-05T04:10:45.105Z,25.77
2019-02-05T04:13:32.658Z,26.80
2019-02-05T04:16:23.058Z,26.60
2019-02-05T04:19:09.350Z,27.00
2019-02-05T04:21:49.677Z,25.17
2019-02-05T04:24:36.901Z,27.85
2019-02-05T04:27:45.046Z,26.50
2019-02-05T04:30:33.278Z,26.58
2019-02-05T04:33:20.495Z,24.00
2019-02-05T04:36:16.729Z,25.12
2019-02-05T04:38:51.412Z,25.53
2019-02-05T04:41:51.339Z,27.95
2019-02-05T04:44:33.676Z,25.75
2019-02-05T04:47:05.140Z,28.17
2019-02-05T04:49:53.593Z,25.73
2019-02-05T04:52:45.417Z,26.40
2019-02-05T04:55:34.653Z,25.90
2019-02-05T04:58:14.967Z,26.58
2019-02-05T05:00:59.552Z,27.58
2019-02-05T05:03:34.499Z,28.60
2019-02-05T05:06:40.150Z,29.12
2019-02-05T05:09:14.491Z,27.90
2019-02-05T05:11:42.571Z,28.27
2019-02-05T05:14:10.926Z,27.58
2019-02-05T05:16:38.815Z,27.20
2019-02-05T05:19:07.387Z,28.40
2019-02-05T05:21:35.431Z,24.87
2019-02-05T05:24:04.236Z,27.10
2019-02-05T05:26:32.009Z,27.97
2019-02-05T05:29:00.160Z,28.35
2019-02-05T05:31:28.341Z,26.30
2019-02-05T05:33:56.464Z,25.65
2019-02-05T05:36:24.690Z,26.67
2019-02-05T05:38:52.992Z,27.87
2019-02-05T05:41:20.445Z,29.65
2019-02-05T05:43:48.504Z,28.97
2019-02-05T05:46:16.884Z,30.17
2019-02-05T05:48:44.670Z,28.58
2019-02-05T05:51:12.835Z,27.02
2019-02-05T05:53:40.992Z,28.12
2019-02-05T05:56:09.151Z,27.75
2019-02-05T05:58:37.247Z,24.73
2019-02-05T06:01:05.602Z,26.17
2019-02-05T06:03:33.678Z,25.20
2019-02-05T06:06:01.436Z,24.47
2019-02-05T06:08:29.525Z,28.30
2019-02-05T06:10:58.091Z,29.90
2019-02-05T06:13:26.183Z,25.30
2019-02-05T06:15:54.605Z,27.27
2019-02-05T06:18:22.468Z,27.65
2019-02-05T06:20:50.281Z,27.52
2019-02-05T06:23:18.604Z,26.60
2019-02-05T06:25:46.707Z,28.62
2019-02-05T06:28:14.787Z,29.12
2019-02-05T06:30:42.777Z,28.60
2019-02-05T06:33:10.229Z,26.52
2019-02-05T06:35:38.738Z,29.40
2019-02-05T06:38:06.762Z,30.12
2019-02-05T06:40:34.834Z,28.55
2019-02-05T06:43:03.022Z,29.12
2019-02-05T06:45:31.489Z,30.10
2019-02-05T06:47:59.555Z,31.08
2019-02-05T06:50:27.618Z,30.55
2019-02-05T06:52:56.310Z,25.98
2019-02-05T06:55:24.368Z,28.38
2019-02-05T06:57:52.167Z,28.27
2019-02-05T07:00:21.438Z,27.83
2019-02-05T07:02:49.525Z,28.98
2019-02-05T07:05:17.421Z,28.48
2019-02-05T07:07:45.530Z,28.35
2019-02-05T07:10:14.763Z,25.88
2019-02-05T07:12:42.606Z,29.45
2019-02-05T07:15:11.328Z,28.05
2019-02-05T07:17:49.372Z,26.02
2019-02-05T07:20:08.398Z,30.17
2019-02-05T07:22:36.894Z,30.83
2019-02-05T07:25:05.470Z,29.98
2019-02-05T07:27:33.667Z,30.25
2019-02-05T07:30:02.189Z,29.85
2019-02-05T07:32:30.119Z,29.58
2019-02-05T07:34:58.295Z,28.17
2019-02-05T07:37:26.611Z,30.20
2019-02-05T07:39:54.411Z,27.73
2019-02-05T07:42:22.553Z,27.87
2019-02-05T07:44:51.264Z,28.80
2019-02-05T07:47:19.097Z,29.45
2019-02-05T07:49:47.034Z,27.92
2019-02-05T07:52:15.284Z,26.30
2019-02-05T07:54:43.246Z,28.90
2019-02-05T07:57:11.068Z,29.35
2019-02-05T07:59:39.222Z,27.60
2019-02-05T08:02:07.416Z,28.15
2019-02-05T08:04:35.644Z,28.95
2019-02-05T08:07:03.805Z,25.98
2019-02-05T08:09:32.027Z,27.60
2019-02-05T08:11:59.964Z,27.30
2019-02-05T08:14:28.181Z,26.60
2019-02-05T08:16:56.355Z,25.52
2019-02-05T08:19:25.353Z,29.90
2019-02-05T08:21:53.252Z,28.40
2019-02-05T08:24:21.375Z,28.95
2019-02-05T08:26:49.585Z,28.65
2019-02-05T08:29:21.647Z,28.12
2019-02-05T08:31:45.676Z,29.35
2019-02-05T08:34:13.858Z,28.48
2019-02-05T08:36:41.777Z,28.12
2019-02-05T08:39:10.091Z,28.00
2019-02-05T08:41:38.291Z,27.15
2019-02-05T08:44:06.539Z,27.00
2019-02-05T08:46:34.624Z,28.62
2019-02-05T08:49:02.797Z,26.65
2019-02-05T08:51:31.132Z,28.67
2019-02-05T08:53:59.130Z,30.35
2019-02-05T08:56:27.319Z,26.17
2019-02-05T08:58:55.575Z,28.50
2019-02-05T09:01:23.619Z,26.92
2019-02-05T09:03:51.790Z,27.75
2019-02-05T09:06:19.691Z,27.08
2019-02-05T09:08:47.651Z,25.23
2019-02-05T09:11:15.899Z,27.00
2019-02-05T09:13:44.651Z,26.05
2019-02-05T09:16:12.888Z,24.95
2019-02-05T09:18:41.078Z,24.45
2019-02-05T09:21:09.420Z,25.95
2019-02-05T09:23:37.509Z,25.33
2019-02-05T09:26:05.676Z,23.30
2019-02-05T09:28:33.894Z,25.85
2019-02-05T09:31:02.079Z,24.80
2019-02-05T09:33:30.278Z,24.42
2019-02-05T09:35:58.436Z,26.02
2019-02-05T09:38:26.606Z,24.70
2019-02-05T09:40:54.243Z,25.10
2019-02-05T09:43:22.425Z,23.90
2019-02-05T09:45:50.684Z,23.58
2019-02-05T09:48:19.120Z,22.52
2019-02-05T09:50:47.553Z,23.52
2019-02-05T09:53:15.697Z,22.70
2019-02-05T09:55:43.897Z,23.65
2019-02-05T09:58:12.625Z,24.33
2019-02-05T10:00:41.013Z,21.62
2019-02-05T10:03:08.942Z,22.58
2019-02-05T10:05:37.177Z,23.95
2019-02-05T10:08:05.583Z,23.15
2019-02-05T10:10:33.793Z,24.08
2019-02-05T10:13:01.949Z,22.40
2019-02-05T10:15:31.278Z,22.73
2019-02-05T10:17:59.242Z,22.83
2019-02-05T10:20:27.926Z,22.77
2019-02-05T10:22:57.529Z,22.70
2019-02-05T10:25:25.694Z,23.08
2019-02-05T10:27:54.363Z,25.02
2019-02-05T10:30:26.765Z,23.83
2019-02-05T10:32:54.995Z,24.30
2019-02-05T10:35:23.155Z,23.95
2019-02-05T10:37:51.494Z,21.65
2019-02-05T10:40:19.825Z,22.48
2019-02-05T10:42:47.743Z,24.92
2019-02-05T10:45:16.069Z,23.85
2019-02-05T10:47:44.668Z,24.05
2019-02-05T10:50:13.475Z,23.62
2019-02-05T10:52:41.380Z,24.70
2019-02-05T10:55:10.281Z,23.40
2019-02-05T10:57:39.111Z,25.27
2019-02-05T11:00:09.298Z,23.25
2019-02-05T11:02:36.223Z,24.30
2019-02-05T11:05:04.504Z,22.98
2019-02-05T11:07:32.687Z,22.60
2019-02-05T11:10:00.906Z,22.40
2019-02-05T11:12:29.342Z,22.05
2019-02-05T11:14:57.231Z,23.45
2019-02-05T11:17:25.361Z,23.05
2019-02-05T11:19:54.065Z,24.33
2019-02-05T11:22:22.223Z,21.12
2019-02-05T11:24:50.506Z,22.55
2019-02-05T11:27:18.722Z,20.62
2019-02-05T11:29:46.871Z,20.42
2019-02-05T11:32:15.034Z,20.02
2019-02-05T11:34:42.863Z,18.83
2019-02-05T11:37:10.985Z,18.80
2019-02-05T11:39:39.214Z,18.95
2019-02-05T11:42:07.346Z,19.60
2019-02-05T11:44:35.294Z,19.35
2019-02-05T11:47:04.270Z,19.73
2019-02-05T11:49:32.307Z,20.80
2019-02-05T11:52:00.177Z,20.45
2019-02-05T11:54:28.405Z,20.08
2019-02-05T11:56:56.424Z,18.85
2019-02-05T11:59:24.722Z,17.80
2019-02-05T12:01:52.700Z,18.67
2019-02-05T12:04:20.633Z,18.85
2019-02-05T12:06:48.511Z,20.27
2019-02-05T12:09:26.404Z,18.98
2019-02-05T12:11:54.593Z,21.15
2019-02-05T12:14:22.780Z,20.23
2019-02-05T12:16:51.020Z,20.42
2019-02-05T12:19:19.642Z,22.20
2019-02-05T12:21:47.751Z,21.50
2019-02-05T12:24:15.598Z,21.50
2019-02-05T12:26:44.353Z,22.10
2019-02-05T12:29:12.604Z,22.35
2019-02-05T12:31:41.798Z,20.40
2019-02-05T12:34:09.673Z,19.70
2019-02-05T12:36:37.909Z,20.67
2019-02-05T12:39:09.335Z,21.92
2019-02-05T12:41:37.515Z,23.00
2019-02-05T12:44:05.714Z,21.35
2019-02-05T12:46:33.642Z,22.50
2019-02-05T12:49:01.868Z,21.62
2019-02-05T12:51:29.910Z,23.08
2019-02-05T12:53:58.296Z,23.70
2019-02-05T12:56:26.451Z,23.02
2019-02-05T12:58:54.613Z,22.95
2019-02-05T13:01:23.358Z,22.85
2019-02-05T13:03:51.563Z,25.35
2019-02-05T13:06:19.467Z,24.75
2019-02-05T13:08:47.938Z,24.80
2019-02-05T13:11:15.881Z,24.80
2019-02-05T13:13:44.133Z,28.65
2019-02-05T13:16:12.813Z,25.50
2019-02-05T13:18:41.108Z,26.65
2019-02-05T13:21:09.091Z,26.87
2019-02-05T13:23:36.648Z,26.62
2019-02-05T13:26:04.676Z,26.80
2019-02-05T13:28:33.953Z,26.85
2019-02-05T13:31:08.014Z,26.10
2019-02-05T13:33:30.369Z,27.60
2019-02-05T13:35:58.406Z,28.35
2019-02-05T13:38:26.547Z,27.13
2019-02-05T13:40:54.682Z,28.12
2019-02-05T13:43:23.609Z,27.58
2019-02-05T13:45:51.508Z,27.35
2019-02-05T13:48:19.476Z,29.90
2019-02-05T13:50:47.591Z,30.52
2019-02-05T13:53:16.056Z,31.30
2019-02-05T13:55:44.655Z,32.85
2019-02-05T13:58:13.242Z,31.62
2019-02-05T14:00:45.941Z,32.90
2019-02-05T14:03:13.787Z,30.37
2019-02-05T14:05:41.971Z,30.65
2019-02-05T14:08:10.661Z,32.28
2019-02-05T14:10:39.051Z,31.60
2019-02-05T14:13:07.155Z,29.58
2019-02-05T14:15:36.480Z,31.65
2019-02-05T14:18:04.814Z,31.15
2019-02-05T14:20:32.702Z,29.45
2019-02-05T14:23:01.382Z,30.08
2019-02-05T14:25:29.250Z,29.95
2019-02-05T14:27:57.221Z,29.80
2019-02-05T14:30:30.133Z,30.55
2019-02-05T14:32:58.371Z,32.25
2019-02-05T14:35:26.278Z,32.83
2019-02-05T14:37:54.178Z,30.05
2019-02-05T14:40:22.325Z,30.30
2019-02-05T14:42:50.627Z,30.65
2019-02-05T14:45:18.873Z,34.00
2019-02-05T14:47:46.798Z,33.55
2019-02-05T14:50:16.911Z,34.05
2019-02-05T14:52:44.786Z,32.38
2019-02-05T14:55:12.880Z,31.75
2019-02-05T14:57:41.050Z,30.80
2019-02-05T15:00:11.112Z,34.17
2019-02-05T15:02:39.019Z,32.85
2019-02-05T15:05:07.105Z,31.75
2019-02-05T15:07:35.463Z,32.00
2019-02-05T15:10:03.514Z,33.38
2019-02-05T15:12:31.641Z,30.45
2019-02-05T15:14:59.808Z,31.00
2019-02-05T15:17:28.021Z,34.28
2019-02-05T15:19:56.263Z,30.45
2019-02-05T15:22:24.895Z,30.58
2019-02-05T15:24:52.749Z,41.83
2019-02-05T15:27:20.687Z,33.42
2019-02-05T15:29:49.658Z,29.52
2019-02-05T15:32:36.748Z,31.15
2019-02-05T15:35:04.913Z,32.33
2019-02-05T15:37:33.072Z,31.08
2019-02-05T15:40:01.214Z,33.92
2019-02-05T15:42:30.016Z,31.85
2019-02-05T15:44:58.131Z,29.35
2019-02-05T15:47:26.226Z,29.12
2019-02-05T15:50:05.658Z,30.65
2019-02-05T15:52:22.888Z,31.02
2019-02-05T15:54:50.452Z,30.42
2019-02-05T15:57:18.634Z,31.23
2019-02-05T15:59:46.804Z,30.60
2019-02-05T16:02:15.005Z,28.38
2019-02-05T16:04:42.931Z,29.02
2019-02-05T16:07:11.148Z,28.35
2019-02-05T16:09:39.326Z,29.37
2019-02-05T16:12:07.247Z,29.37
2019-02-05T16:14:35.447Z,25.50
2019-02-05T16:17:04.246Z,26.37
2019-02-05T16:19:32.408Z,27.27
2019-02-05T16:22:00.319Z,26.20
2019-02-05T16:24:29.058Z,28.58
2019-02-05T16:26:57.486Z,49.17
2019-02-05T16:29:25.367Z,24.63
2019-02-05T16:31:53.565Z,25.17
2019-02-05T16:34:22.487Z,23.23
2019-02-05T16:36:50.722Z,24.08
2019-02-05T16:39:18.867Z,25.42
2019-02-05T16:41:47.038Z,23.75
2019-02-05T16:44:15.137Z,23.95
2019-02-05T16:46:43.313Z,21.00
2019-02-05T16:49:11.966Z,23.23
2019-02-05T16:51:40.116Z,21.85
2019-02-05T16:54:08.276Z,22.17
2019-02-05T16:56:36.183Z,22.80
2019-02-05T16:59:04.607Z,23.25
2019-02-05T17:01:32.764Z,22.55
2019-02-05T17:04:01.517Z,22.62
2019-02-05T17:06:29.622Z,22.25
2019-02-05T17:08:57.830Z,22.27
2019-02-05T17:11:26.937Z,22.15
2019-02-05T17:13:54.968Z,22.20
2019-02-05T17:16:22.835Z,22.52
2019-02-05T17:18:51.287Z,22.55
2019-02-05T17:21:19.494Z,20.45
2019-02-05T17:23:47.683Z,19.73
2019-02-05T17:26:15.594Z,22.55
2019-02-05T17:28:43.454Z,21.98
2019-02-05T17:31:11.059Z,21.58
2019-02-05T17:33:39.327Z,22.23
2019-02-05T17:36:08.210Z,22.73
2019-02-05T17:38:36.049Z,21.80
2019-02-05T17:41:04.501Z,20.45
2019-02-05T17:43:32.729Z,19.92
2019-02-05T17:46:00.920Z,18.83
2019-02-05T17:48:29.152Z,21.42
2019-02-05T17:50:57.325Z,20.95
2019-02-05T17:53:25.126Z,23.42
2019-02-05T17:55:52.712Z,21.67
2019-02-05T17:58:20.929Z,22.33
2019-02-05T18:00:51.069Z,24.15
2019-02-05T18:03:19.637Z,24.77
2019-02-05T18:05:47.863Z,26.05
2019-02-05T18:08:16.105Z,22.90
2019-02-05T18:10:44.336Z,23.62
2019-02-05T18:13:12.189Z,26.27
2019-02-05T18:15:41.279Z,23.75
2019-02-05T18:18:09.481Z,20.25
2019-02-05T18:20:37.587Z,22.95
2019-02-05T18:23:05.770Z,23.30
2019-02-05T18:25:34.306Z,22.70
2019-02-05T18:28:02.403Z,19.37
2019-02-05T18:30:31.214Z,20.20
2019-02-05T18:33:03.863Z,19.17
2019-02-05T18:35:27.645Z,18.40
2019-02-05T18:37:56.362Z,20.42
2019-02-05T18:40:24.755Z,21.12
2019-02-05T18:42:52.648Z,18.98
2019-02-05T18:45:20.906Z,18.65
2019-02-05T18:47:50.004Z,16.85
2019-02-05T18:50:19.377Z,18.87
2019-02-05T18:52:47.215Z,19.40
2019-02-05T18:55:15.590Z,20.62
2019-02-05T18:57:43.787Z,19.42
2019-02-05T19:00:13.680Z,19.80
2019-02-05T19:02:42.237Z,20.10
2019-02-05T19:05:11.025Z,21.15
2019-02-05T19:07:39.181Z,23.23
2019-02-05T19:10:08.755Z,21.37
2019-02-05T19:12:37.585Z,20.80
2019-02-05T19:15:06.706Z,21.10
2019-02-05T19:17:34.916Z,18.52
2019-02-05T19:20:02.808Z,21.60
2019-02-05T19:22:30.925Z,21.00
2019-02-05T19:25:07.682Z,20.62
2019-02-05T19:27:35.960Z,21.00
2019-02-05T19:30:04.163Z,22.58
2019-02-05T19:32:32.707Z,22.62
2019-02-05T19:35:00.843Z,23.98
2019-02-05T19:37:29.028Z,24.95
2019-02-05T19:40:00.297Z,24.40
2019-02-05T19:42:28.166Z,24.40
2019-02-05T19:45:15.383Z,23.45
2019-02-05T19:47:43.568Z,24.40
2019-02-05T19:50:11.346Z,23.25
2019-02-05T19:52:39.391Z,24.42
2019-02-05T19:55:07.587Z,25.05
2019-02-05T19:57:35.583Z,26.67
2019-02-05T20:00:04.053Z,27.23
2019-02-05T20:02:31.878Z,25.17
2019-02-05T20:04:59.977Z,25.10
2019-02-05T20:07:28.424Z,25.10
2019-02-05T20:09:56.292Z,24.92
2019-02-05T20:12:24.405Z,24.63
2019-02-05T20:14:52.576Z,24.35
2019-02-05T20:17:20.759Z,26.00
2019-02-05T20:19:48.992Z,24.65
2019-02-05T20:22:17.151Z,25.67
2019-02-05T20:24:45.273Z,25.02
2019-02-05T20:27:13.197Z,23.58
2019-02-05T20:29:41.580Z,23.52
2019-02-05T20:32:09.407Z,24.20
2019-02-05T20:34:38.063Z,24.08
2019-02-05T20:37:06.268Z,22.08
2019-02-05T20:39:34.510Z,23.67
2019-02-05T20:42:02.730Z,25.37
2019-02-05T20:44:30.960Z,22.25
2019-02-05T20:46:59.127Z,23.60
2019-02-05T20:49:27.378Z,22.87
2019-02-05T20:51:55.996Z,24.75
2019-02-05T20:54:23.545Z,24.70
2019-02-05T20:56:51.778Z,23.55
2019-02-05T20:59:19.931Z,19.33
2019-02-05T21:01:48.171Z,20.92
2019-02-05T21:04:16.036Z,22.85
2019-02-05T21:06:44.411Z,24.12
2019-02-05T21:09:21.830Z,23.42
2019-02-05T21:11:50.310Z,23.12
2019-02-05T21:14:18.248Z,22.65
2019-02-05T21:16:46.552Z,21.60
2019-02-05T21:19:15.159Z,25.00
2019-02-05T21:21:43.276Z,23.83
2019-02-05T21:24:11.174Z,21.17
2019-02-05T21:26:39.907Z,21.02
2019-02-05T21:29:07.875Z,19.33
2019-02-05T21:31:36.026Z,16.40
2019-02-05T21:34:14.834Z,23.80
2019-02-05T21:36:32.445Z,21.45
2019-02-05T21:39:00.371Z,21.65
2019-02-05T21:41:28.913Z,21.60
2019-02-05T21:43:57.462Z,21.77
2019-02-05T21:46:25.689Z,20.20
2019-02-05T21:48:54.335Z,20.73
2019-02-05T21:51:22.515Z,19.75
2019-02-05T21:53:50.666Z,17.85
2019-02-05T21:56:18.849Z,21.25
2019-02-05T21:58:47.120Z,20.73
2019-02-05T22:01:15.101Z,20.33
2019-02-05T22:03:42.939Z,15.07
2019-02-05T22:06:10.782Z,18.77
2019-02-05T22:08:39.075Z,21.52
2019-02-05T22:11:06.951Z,20.47
2019-02-05T22:13:35.160Z,21.05
2019-02-05T22:16:03.070Z,20.10
2019-02-05T22:18:31.216Z,20.00
2019-02-05T22:20:59.477Z,20.13
2019-02-05T22:23:27.619Z,15.63
2019-02-05T22:25:55.456Z,20.57
2019-02-05T22:28:24.137Z,21.73
2019-02-05T22:30:52.230Z,19.95
2019-02-05T22:33:20.830Z,18.70
2019-02-05T22:35:49.009Z,20.83
2019-02-05T22:38:17.183Z,19.20
2019-02-05T22:40:45.074Z,19.58
2019-02-05T22:43:12.275Z,20.00
2019-02-05T22:45:41.374Z,19.10
2019-02-05T22:48:09.608Z,16.13
2019-02-05T22:50:37.745Z,17.45
2019-02-05T22:53:05.992Z,14.13
2019-02-05T22:55:34.387Z,11.02
2019-02-05T22:58:02.410Z,17.17
2019-02-05T23:00:40.126Z,16.60
2019-02-05T23:03:08.243Z,16.60
2019-02-05T23:05:41.519Z,14.63
2019-02-05T23:08:09.695Z,14.67
2019-02-05T23:11:03.337Z,12.40
2019-02-05T23:13:29.069Z,15.13
2019-02-05T23:15:56.984Z,15.65
2019-02-05T23:18:25.012Z,14.87
2019-02-05T23:20:53.960Z,13.70
2019-02-05T23:23:21.024Z,13.97
2019-02-05T23:25:49.077Z,11.03
2019-02-05T23:28:17.647Z,11.17
2019-02-05T23:30:45.426Z,10.60
2019-02-05T23:33:13.497Z,12.10
2019-02-05T23:35:42.583Z,12.23
2019-02-05T23:38:10.665Z,12.60
2019-02-05T23:40:38.527Z,10.40
2019-02-05T23:43:06.297Z,12.85
2019-02-05T23:45:34.330Z,11.18
2019-02-05T23:48:02.628Z,14.75
2019-02-05T23:50:30.705Z,15.38
2019-02-05T23:52:58.754Z,12.63
2019-02-05T23:55:26.542Z,13.27
2019-02-05T23:57:54.884Z,13.60
